sensor_id;sensor_type;location;lat;lon;timestamp;pressure;altitude;pressure_sealevel;temperature;humidity
73085;BME280;62974;49.460;10.892;2023-11-21T00:00:45;97204.38;;;8.15;100.00
73085;BME280;62974;49.460;10.892;2023-11-21T00:03:13;97203.72;;;8.13;100.00
73085;BME280;62974;49.460;10.892;2023-11-21T00:05:42;97202.03;;;8.05;100.00
73085;BME280;62974;49.460;10.892;2023-11-21T00:08:09;97203.72;;;8.06;100.00
73085;BME280;62974;49.460;10.892;2023-11-21T00:10:38;97202.28;;;8.10;100.00
73085;BME280;62974;49.460;10.892;2023-11-21T00:13:05;97204.53;;;8.07;100.00
73085;BME280;62974;49.460;10.892;2023-11-21T00:15:34;97199.38;;;8.05;100.00
73085;BME280;62974;49.460;10.892;2023-11-21T00:18:03;97203.53;;;8.08;100.00
73085;BME280;62974;49.460;10.892;2023-11-21T00:20:31;97200.84;;;8.08;100.00
73085;BME280;62974;49.460;10.892;2023-11-21T00:22:59;97202.47;;;8.09;100.00
73085;BME280;62974;49.460;10.892;2023-11-21T00:25:28;97205.97;;;8.02;100.00
73085;BME280;62974;49.460;10.892;2023-11-21T00:27:57;97194.84;;;7.99;100.00
73085;BME280;62974;49.460;10.892;2023-11-21T00:30:25;97195.88;;;8.04;100.00
73085;BME280;62974;49.460;10.892;2023-11-21T00:32:52;97198.34;;;7.99;100.00
73085;BME280;62974;49.460;10.892;2023-11-21T00:35:22;97193.38;;;7.96;100.00
73085;BME280;62974;49.460;10.892;2023-11-21T00:37:49;97194.78;;;7.86;100.00
73085;BME280;62974;49.460;10.892;2023-11-21T00:40:17;97193.59;;;7.95;100.00
73085;BME280;62974;49.460;10.892;2023-11-21T00:42:45;97188.66;;;7.92;100.00
73085;BME280;62974;49.460;10.892;2023-11-21T00:45:13;97187.97;;;7.83;100.00
73085;BME280;62974;49.460;10.892;2023-11-21T00:47:41;97190.50;;;7.91;100.00
73085;BME280;62974;49.460;10.892;2023-11-21T00:50:09;97190.91;;;7.95;100.00
73085;BME280;62974;49.460;10.892;2023-11-21T00:52:38;97194.00;;;7.92;100.00
73085;BME280;62974;49.460;10.892;2023-11-21T00:55:07;97196.84;;;7.90;100.00
73085;BME280;62974;49.460;10.892;2023-11-21T00:57:35;97197.28;;;7.94;100.00
73085;BME280;62974;49.460;10.892;2023-11-21T01:00:05;97196.63;;;7.85;100.00
73085;BME280;62974;49.460;10.892;2023-11-21T01:02:34;97196.66;;;7.92;100.00
73085;BME280;62974;49.460;10.892;2023-11-21T01:05:03;97197.38;;;7.73;100.00
73085;BME280;62974;49.460;10.892;2023-11-21T01:07:31;97187.81;;;7.57;100.00
73085;BME280;62974;49.460;10.892;2023-11-21T01:10:00;97195.50;;;7.67;100.00
73085;BME280;62974;49.460;10.892;2023-11-21T01:12:28;97197.25;;;7.87;100.00
73085;BME280;62974;49.460;10.892;2023-11-21T01:14:55;97196.19;;;7.82;100.00
73085;BME280;62974;49.460;10.892;2023-11-21T01:17:24;97197.47;;;7.92;100.00
73085;BME280;62974;49.460;10.892;2023-11-21T01:19:51;97196.81;;;7.84;100.00
73085;BME280;62974;49.460;10.892;2023-11-21T01:22:19;97199.25;;;7.79;100.00
73085;BME280;62974;49.460;10.892;2023-11-21T01:24:53;97197.84;;;7.83;100.00
73085;BME280;62974;49.460;10.892;2023-11-21T01:27:22;97196.66;;;7.92;100.00
73085;BME280;62974;49.460;10.892;2023-11-21T01:29:49;97198.50;;;7.91;100.00
73085;BME280;62974;49.460;10.892;2023-11-21T01:32:19;97201.38;;;7.90;100.00
73085;BME280;62974;49.460;10.892;2023-11-21T01:34:47;97197.25;;;7.87;100.00
73085;BME280;62974;49.460;10.892;2023-11-21T01:37:15;97201.56;;;7.88;100.00
73085;BME280;62974;49.460;10.892;2023-11-21T01:39:44;97194.19;;;7.90;100.00
73085;BME280;62974;49.460;10.892;2023-11-21T01:42:12;97201.38;;;7.96;100.00
73085;BME280;62974;49.460;10.892;2023-11-21T01:44:41;97191.16;;;8.00;100.00
73085;BME280;62974;49.460;10.892;2023-11-21T01:47:09;97199.19;;;8.07;100.00
73085;BME280;62974;49.460;10.892;2023-11-21T01:49:37;97194.63;;;8.00;100.00
73085;BME280;62974;49.460;10.892;2023-11-21T01:52:05;97191.53;;;7.97;100.00
73085;BME280;62974;49.460;10.892;2023-11-21T01:54:34;97188.47;;;8.00;100.00
73085;BME280;62974;49.460;10.892;2023-11-21T01:57:03;97181.22;;;7.87;100.00
73085;BME280;62974;49.460;10.892;2023-11-21T01:59:34;97190.50;;;7.98;100.00
73085;BME280;62974;49.460;10.892;2023-11-21T02:02:05;97188.66;;;7.92;100.00
73085;BME280;62974;49.460;10.892;2023-11-21T02:04:34;97185.13;;;7.91;100.00
73085;BME280;62974;49.460;10.892;2023-11-21T02:07:03;97190.25;;;7.86;100.00
73085;BME280;62974;49.460;10.892;2023-11-21T02:09:32;97195.41;;;7.88;100.00
73085;BME280;62974;49.460;10.892;2023-11-21T02:12:00;97194.78;;;7.92;100.00
73085;BME280;62974;49.460;10.892;2023-11-21T02:14:29;97185.13;;;7.91;100.00
73085;BME280;62974;49.460;10.892;2023-11-21T02:16:57;97188.25;;;7.95;100.00
73085;BME280;62974;49.460;10.892;2023-11-21T02:19:26;97184.94;;;7.93;100.00
73085;BME280;62974;49.460;10.892;2023-11-21T02:21:56;97181.22;;;7.87;100.00
73085;BME280;62974;49.460;10.892;2023-11-21T02:24:28;97177.28;;;7.83;100.00
73085;BME280;62974;49.460;10.892;2023-11-21T02:26:56;97183.47;;;7.90;100.00
73085;BME280;62974;49.460;10.892;2023-11-21T02:29:24;97176.66;;;7.81;100.00
73085;BME280;62974;49.460;10.892;2023-11-21T02:31:55;97178.72;;;7.79;100.00
73085;BME280;62974;49.460;10.892;2023-11-21T02:34:23;97171.13;;;7.83;100.00
73085;BME280;62974;49.460;10.892;2023-11-21T02:36:51;97178.72;;;7.79;100.00
73085;BME280;62974;49.460;10.892;2023-11-21T02:39:19;97172.50;;;7.72;100.00
73085;BME280;62974;49.460;10.892;2023-11-21T02:41:50;97167.19;;;7.79;100.00
73085;BME280;62974;49.460;10.892;2023-11-21T02:44:17;97164.72;;;7.77;100.00
73085;BME280;62974;49.460;10.892;2023-11-21T02:46:45;97162.09;;;7.84;100.00
73085;BME280;62974;49.460;10.892;2023-11-21T02:49:13;97162.00;;;7.71;100.00
73085;BME280;62974;49.460;10.892;2023-11-21T02:51:41;97161.00;;;7.72;100.00
73085;BME280;62974;49.460;10.892;2023-11-21T02:54:09;97171.31;;;7.81;100.00
73085;BME280;62974;49.460;10.892;2023-11-21T02:56:37;97170.28;;;7.82;100.00
73085;BME280;62974;49.460;10.892;2023-11-21T02:59:07;97170.13;;;7.90;100.00
73085;BME280;62974;49.460;10.892;2023-11-21T03:01:35;97179.63;;;7.99;100.00
73085;BME280;62974;49.460;10.892;2023-11-21T03:04:03;97177.97;;;7.98;100.00
73085;BME280;62974;49.460;10.892;2023-11-21T03:06:31;97175.06;;;7.93;100.00
73085;BME280;62974;49.460;10.892;2023-11-21T03:08:58;97182.72;;;8.03;100.00
73085;BME280;62974;49.460;10.892;2023-11-21T03:11:26;97166.91;;;7.33;100.00
73085;BME280;62974;49.460;10.892;2023-11-21T03:13:53;97173.78;;;7.76;100.00
73085;BME280;62974;49.460;10.892;2023-11-21T03:16:22;97164.69;;;7.71;100.00
73085;BME280;62974;49.460;10.892;2023-11-21T03:18:50;97171.84;;;7.64;100.00
73085;BME280;62974;49.460;10.892;2023-11-21T03:21:19;97174.03;;;7.88;100.00
73085;BME280;62974;49.460;10.892;2023-11-21T03:23:46;97171.13;;;7.83;100.00
73085;BME280;62974;49.460;10.892;2023-11-21T03:26:14;97170.06;;;7.77;100.00
73085;BME280;62974;49.460;10.892;2023-11-21T03:28:42;97177.06;;;7.78;100.00
73085;BME280;62974;49.460;10.892;2023-11-21T03:31:10;97178.31;;;7.89;100.00
73085;BME280;62974;49.460;10.892;2023-11-21T03:33:39;97182.41;;;7.85;100.00
73085;BME280;62974;49.460;10.892;2023-11-21T03:36:07;97180.63;;;7.92;100.00
73085;BME280;62974;49.460;10.892;2023-11-21T03:38:35;97182.25;;;7.93;100.00
73085;BME280;62974;49.460;10.892;2023-11-21T03:41:03;97178.72;;;7.86;100.00
73085;BME280;62974;49.460;10.892;2023-11-21T03:43:32;97181.63;;;7.91;100.00
73085;BME280;62974;49.460;10.892;2023-11-21T03:45:59;97184.94;;;7.93;100.00
73085;BME280;62974;49.460;10.892;2023-11-21T03:48:27;97181.22;;;7.94;100.00
73085;BME280;62974;49.460;10.892;2023-11-21T03:50:56;97183.72;;;7.95;100.00
73085;BME280;62974;49.460;10.892;2023-11-21T03:53:23;97187.66;;;7.99;100.00
73085;BME280;62974;49.460;10.892;2023-11-21T03:55:51;97187.00;;;7.97;100.00
73085;BME280;62974;49.460;10.892;2023-11-21T03:58:19;97190.91;;;7.95;100.00
73085;BME280;62974;49.460;10.892;2023-11-21T04:00:47;97190.44;;;7.85;100.00
73085;BME280;62974;49.460;10.892;2023-11-21T04:03:15;97191.50;;;7.90;100.00
73085;BME280;62974;49.460;10.892;2023-11-21T04:05:43;97186.72;;;7.79;100.00
73085;BME280;62974;49.460;10.892;2023-11-21T04:08:13;97192.84;;;7.73;100.00
73085;BME280;62974;49.460;10.892;2023-11-21T04:10:41;97189.47;;;7.58;100.00
73085;BME280;62974;49.460;10.892;2023-11-21T04:13:09;97186.09;;;7.77;100.00
73085;BME280;62974;49.460;10.892;2023-11-21T04:15:37;97201.38;;;7.90;100.00
73085;BME280;62974;49.460;10.892;2023-11-21T04:18:04;97187.22;;;7.62;100.00
73085;BME280;62974;49.460;10.892;2023-11-21T04:20:32;97187.13;;;7.76;100.00
73085;BME280;62974;49.460;10.892;2023-11-21T04:23:00;97191.25;;;7.79;100.00
73085;BME280;62974;49.460;10.892;2023-11-21T04:25:29;97186.75;;;7.86;100.00
73085;BME280;62974;49.460;10.892;2023-11-21T04:27:56;97187.22;;;7.62;100.00
73085;BME280;62974;49.460;10.892;2023-11-21T04:30:24;97191.25;;;7.79;100.00
73085;BME280;62974;49.460;10.892;2023-11-21T04:32:51;97182.22;;;7.80;100.00
73085;BME280;62974;49.460;10.892;2023-11-21T04:35:19;97190.84;;;7.82;100.00
73085;BME280;62974;49.460;10.892;2023-11-21T04:37:47;97191.25;;;7.85;100.00
73085;BME280;62974;49.460;10.892;2023-11-21T04:40:14;97192.94;;;7.93;100.00
73085;BME280;62974;49.460;10.892;2023-11-21T04:42:44;97196.06;;;7.55;100.00
73085;BME280;62974;49.460;10.892;2023-11-21T04:45:11;97191.59;;;7.69;100.00
73085;BME280;62974;49.460;10.892;2023-11-21T04:47:39;97194.94;;;7.78;100.00
73085;BME280;62974;49.460;10.892;2023-11-21T04:50:08;97202.19;;;7.90;100.00
73085;BME280;62974;49.460;10.892;2023-11-21T04:52:36;97198.66;;;7.83;100.00
73085;BME280;62974;49.460;10.892;2023-11-21T04:55:04;97201.78;;;7.93;100.00
73085;BME280;62974;49.460;10.892;2023-11-21T04:57:33;97207.38;;;7.98;100.00
73085;BME280;62974;49.460;10.892;2023-11-21T05:00:02;97196.78;;;6.87;100.00
73085;BME280;62974;49.460;10.892;2023-11-21T05:02:32;97190.56;;;7.64;100.00
73085;BME280;62974;49.460;10.892;2023-11-21T05:05:02;97202.94;;;7.78;100.00
73085;BME280;62974;49.460;10.892;2023-11-21T05:07:32;97204.88;;;7.90;100.00
73085;BME280;62974;49.460;10.892;2023-11-21T05:10:02;97207.34;;;7.92;100.00
73085;BME280;62974;49.460;10.892;2023-11-21T05:12:32;97215.91;;;7.81;100.00
73085;BME280;62974;49.460;10.892;2023-11-21T05:15:04;97210.41;;;7.89;100.00
73085;BME280;62974;49.460;10.892;2023-11-21T05:17:34;97216.16;;;7.92;100.00
73085;BME280;62974;49.460;10.892;2023-11-21T05:20:02;97211.81;;;7.85;100.00
73085;BME280;62974;49.460;10.892;2023-11-21T05:22:34;97216.69;;;7.68;100.00
73085;BME280;62974;49.460;10.892;2023-11-21T05:25:02;97217.81;;;7.87;100.00
73085;BME280;62974;49.460;10.892;2023-11-21T05:27:30;97218.16;;;7.77;100.00
73085;BME280;62974;49.460;10.892;2023-11-21T05:29:58;97225.63;;;7.88;100.00
73085;BME280;62974;49.460;10.892;2023-11-21T05:32:27;97233.72;;;7.67;100.00
73085;BME280;62974;49.460;10.892;2023-11-21T05:34:55;97218.47;;;7.61;100.00
73085;BME280;62974;49.460;10.892;2023-11-21T05:37:22;97229.56;;;7.58;100.00
73085;BME280;62974;49.460;10.892;2023-11-21T05:39:50;97218.84;;;7.24;100.00
73085;BME280;62974;49.460;10.892;2023-11-21T05:42:18;97214.25;;;7.45;100.00
73085;BME280;62974;49.460;10.892;2023-11-21T05:44:45;97222.88;;;7.75;100.00
73085;BME280;62974;49.460;10.892;2023-11-21T05:47:13;97228.50;;;7.87;100.00
73085;BME280;62974;49.460;10.892;2023-11-21T05:49:42;97237.34;;;7.87;100.00
73085;BME280;62974;49.460;10.892;2023-11-21T05:52:11;97236.81;;;7.64;100.00
73085;BME280;62974;49.460;10.892;2023-11-21T05:54:39;97239.38;;;7.85;100.00
73085;BME280;62974;49.460;10.892;2023-11-21T05:57:06;97246.63;;;7.91;100.00
73085;BME280;62974;49.460;10.892;2023-11-21T05:59:35;97249.06;;;7.86;100.00
73085;BME280;62974;49.460;10.892;2023-11-21T06:02:03;97250.47;;;7.82;100.00
73085;BME280;62974;49.460;10.892;2023-11-21T06:04:31;97249.88;;;7.87;100.00
73085;BME280;62974;49.460;10.892;2023-11-21T06:07:00;97260.00;;;7.91;100.00
73085;BME280;62974;49.460;10.892;2023-11-21T06:09:28;97252.31;;;7.82;100.00
73085;BME280;62974;49.460;10.892;2023-11-21T06:11:55;97254.81;;;7.83;100.00
73085;BME280;62974;49.460;10.892;2023-11-21T06:14:23;97257.06;;;7.86;100.00
73085;BME280;62974;49.460;10.892;2023-11-21T06:16:50;97247.81;;;7.89;100.00
73085;BME280;62974;49.460;10.892;2023-11-21T06:19:19;97253.75;;;7.84;100.00
73085;BME280;62974;49.460;10.892;2023-11-21T06:21:46;97260.34;;;7.88;100.00
73085;BME280;62974;49.460;10.892;2023-11-21T06:24:15;97256.69;;;7.89;100.00
73085;BME280;62974;49.460;10.892;2023-11-21T06:26:43;97256.91;;;7.32;100.00
73085;BME280;62974;49.460;10.892;2023-11-21T06:29:11;97258.25;;;7.77;100.00
73085;BME280;62974;49.460;10.892;2023-11-21T06:31:39;97261.16;;;7.82;100.00
73085;BME280;62974;49.460;10.892;2023-11-21T06:34:07;97269.19;;;7.82;100.00
73085;BME280;62974;49.460;10.892;2023-11-21T06:36:35;97273.72;;;7.88;100.00
73085;BME280;62974;49.460;10.892;2023-11-21T06:39:03;97274.56;;;7.89;100.00
73085;BME280;62974;49.460;10.892;2023-11-21T06:41:34;97278.69;;;7.91;100.00
73085;BME280;62974;49.460;10.892;2023-11-21T06:44:05;97277.44;;;7.87;100.00
73085;BME280;62974;49.460;10.892;2023-11-21T06:46:32;97277.44;;;7.87;100.00
73085;BME280;62974;49.460;10.892;2023-11-21T06:49:00;97281.31;;;7.85;100.00
73085;BME280;62974;49.460;10.892;2023-11-21T06:51:28;97287.72;;;7.84;100.00
73085;BME280;62974;49.460;10.892;2023-11-21T06:53:55;97287.75;;;7.90;100.00
73085;BME280;62974;49.460;10.892;2023-11-21T06:56:23;97303.13;;;7.88;100.00
73085;BME280;62974;49.460;10.892;2023-11-21T06:58:52;97301.94;;;7.91;100.00
73085;BME280;62974;49.460;10.892;2023-11-21T07:01:20;97307.06;;;7.92;100.00
73085;BME280;62974;49.460;10.892;2023-11-21T07:03:48;97309.81;;;7.71;100.00
73085;BME280;62974;49.460;10.892;2023-11-21T07:06:16;97312.66;;;7.70;100.00
73085;BME280;62974;49.460;10.892;2023-11-21T07:08:44;97317.09;;;7.84;100.00
73085;BME280;62974;49.460;10.892;2023-11-21T07:11:13;97319.16;;;7.88;100.00
73085;BME280;62974;49.460;10.892;2023-11-21T07:13:41;97322.91;;;7.94;100.00
73085;BME280;62974;49.460;10.892;2023-11-21T07:16:10;97325.13;;;7.56;100.00
73085;BME280;62974;49.460;10.892;2023-11-21T07:18:38;97322.97;;;7.73;100.00
73085;BME280;62974;49.460;10.892;2023-11-21T07:21:06;97332.09;;;7.85;100.00
73085;BME280;62974;49.460;10.892;2023-11-21T07:23:34;97337.09;;;7.88;100.00
73085;BME280;62974;49.460;10.892;2023-11-21T07:26:03;97340.81;;;7.93;100.00
73085;BME280;62974;49.460;10.892;2023-11-21T07:28:35;97345.13;;;7.94;100.00
73085;BME280;62974;49.460;10.892;2023-11-21T07:31:03;97350.72;;;7.99;100.00
73085;BME280;62974;49.460;10.892;2023-11-21T07:33:32;97347.22;;;7.71;100.00
73085;BME280;62974;49.460;10.892;2023-11-21T07:35:59;97339.16;;;7.01;100.00
73085;BME280;62974;49.460;10.892;2023-11-21T07:38:27;97335.06;;;7.69;100.00
73085;BME280;62974;49.460;10.892;2023-11-21T07:40:55;97342.88;;;7.91;100.00
73085;BME280;62974;49.460;10.892;2023-11-21T07:43:23;97349.53;;;7.81;100.00
73085;BME280;62974;49.460;10.892;2023-11-21T07:45:50;97353.59;;;7.98;100.00
73085;BME280;62974;49.460;10.892;2023-11-21T07:48:18;97354.66;;;8.03;100.00
73085;BME280;62974;49.460;10.892;2023-11-21T07:50:47;97352.19;;;8.02;100.00
73085;BME280;62974;49.460;10.892;2023-11-21T07:53:14;97358.31;;;7.96;100.00
73085;BME280;62974;49.460;10.892;2023-11-21T07:55:42;97354.44;;;8.05;100.00
73085;BME280;62974;49.460;10.892;2023-11-21T07:58:13;97362.09;;;8.08;100.00
73085;BME280;62974;49.460;10.892;2023-11-21T08:00:41;97357.13;;;8.05;100.00
73085;BME280;62974;49.460;10.892;2023-11-21T08:03:08;97359.66;;;7.57;100.00
73085;BME280;62974;49.460;10.892;2023-11-21T08:05:38;97336.22;;;7.32;100.00
73085;BME280;62974;49.460;10.892;2023-11-21T08:08:07;97339.81;;;7.45;100.00
73085;BME280;62974;49.460;10.892;2023-11-21T08:10:34;97338.75;;;7.40;100.00
73085;BME280;62974;49.460;10.892;2023-11-21T08:13:02;97359.81;;;7.77;100.00
73085;BME280;62974;49.460;10.892;2023-11-21T08:15:30;97366.34;;;7.96;100.00
73085;BME280;62974;49.460;10.892;2023-11-21T08:17:58;97372.34;;;8.04;100.00
73085;BME280;62974;49.460;10.892;2023-11-21T08:20:26;97369.63;;;7.70;100.00
73085;BME280;62974;49.460;10.892;2023-11-21T08:22:54;97363.34;;;7.84;100.00
73085;BME280;62974;49.460;10.892;2023-11-21T08:25:24;97347.91;;;7.52;100.00
73085;BME280;62974;49.460;10.892;2023-11-21T08:27:52;97344.31;;;7.66;100.00
73085;BME280;62974;49.460;10.892;2023-11-21T08:30:20;97341.59;;;7.60;100.00
73085;BME280;62974;49.460;10.892;2023-11-21T08:32:50;97341.06;;;7.71;100.00
73085;BME280;62974;49.460;10.892;2023-11-21T08:35:20;97331.69;;;7.11;100.00
73085;BME280;62974;49.460;10.892;2023-11-21T08:37:48;97327.16;;;7.33;100.00
73085;BME280;62974;49.460;10.892;2023-11-21T08:40:15;97329.91;;;7.18;100.00
73085;BME280;62974;49.460;10.892;2023-11-21T08:42:45;97322.06;;;7.17;100.00
73085;BME280;62974;49.460;10.892;2023-11-21T08:45:13;97318.38;;;7.18;100.00
73085;BME280;62974;49.460;10.892;2023-11-21T08:47:41;97321.88;;;7.39;100.00
73085;BME280;62974;49.460;10.892;2023-11-21T08:50:11;97341.25;;;7.69;100.00
73085;BME280;62974;49.460;10.892;2023-11-21T08:52:39;97352.91;;;7.62;100.00
73085;BME280;62974;49.460;10.892;2023-11-21T08:55:07;97367.69;;;7.36;100.00
73085;BME280;62974;49.460;10.892;2023-11-21T08:57:35;97366.25;;;7.62;100.00
73085;BME280;62974;49.460;10.892;2023-11-21T09:00:06;97368.56;;;7.92;100.00
73085;BME280;62974;49.460;10.892;2023-11-21T09:02:37;97373.81;;;7.79;100.00
73085;BME280;62974;49.460;10.892;2023-11-21T09:05:08;97369.22;;;7.24;100.00
73085;BME280;62974;49.460;10.892;2023-11-21T09:07:35;97363.41;;;7.42;100.00
73085;BME280;62974;49.460;10.892;2023-11-21T09:10:04;97368.91;;;7.83;100.00
73085;BME280;62974;49.460;10.892;2023-11-21T09:12:36;97385.69;;;7.98;100.00
73085;BME280;62974;49.460;10.892;2023-11-21T09:15:07;97384.28;;;7.32;100.00
73085;BME280;62974;49.460;10.892;2023-11-21T09:17:36;97376.88;;;7.34;100.00
73085;BME280;62974;49.460;10.892;2023-11-21T09:20:05;97380.00;;;7.37;100.00
73085;BME280;62974;49.460;10.892;2023-11-21T09:22:34;97377.00;;;7.26;100.00
73085;BME280;62974;49.460;10.892;2023-11-21T09:25:02;97391.78;;;7.64;100.00
73085;BME280;62974;49.460;10.892;2023-11-21T09:27:31;97386.97;;;7.81;100.00
73085;BME280;62974;49.460;10.892;2023-11-21T09:29:59;97388.59;;;7.54;100.00
73085;BME280;62974;49.460;10.892;2023-11-21T09:32:28;97384.25;;;7.74;100.00
73085;BME280;62974;49.460;10.892;2023-11-21T09:34:56;97393.59;;;7.85;100.00
73085;BME280;62974;49.460;10.892;2023-11-21T09:37:25;97392.66;;;7.71;100.00
73085;BME280;62974;49.460;10.892;2023-11-21T09:39:53;97390.00;;;7.71;100.00
73085;BME280;62974;49.460;10.892;2023-11-21T09:42:23;97384.47;;;7.51;100.00
73085;BME280;62974;49.460;10.892;2023-11-21T09:44:58;97383.78;;;7.64;100.00
73085;BME280;62974;49.460;10.892;2023-11-21T09:47:32;97388.34;;;7.49;100.00
73085;BME280;62974;49.460;10.892;2023-11-21T09:50:02;97387.88;;;7.45;100.00
73085;BME280;62974;49.460;10.892;2023-11-21T09:52:31;97386.22;;;7.66;100.00
73085;BME280;62974;49.460;10.892;2023-11-21T09:55:00;97392.31;;;7.81;100.00
73085;BME280;62974;49.460;10.892;2023-11-21T09:57:32;97392.22;;;7.68;100.00
73085;BME280;62974;49.460;10.892;2023-11-21T10:00:01;97384.78;;;7.42;100.00
73085;BME280;62974;49.460;10.892;2023-11-21T10:02:34;97389.16;;;7.49;100.00
73085;BME280;62974;49.460;10.892;2023-11-21T10:05:04;97378.41;;;7.64;100.00
73085;BME280;62974;49.460;10.892;2023-11-21T10:07:34;97394.41;;;7.85;100.00
73085;BME280;62974;49.460;10.892;2023-11-21T10:10:02;97394.16;;;7.80;100.00
73085;BME280;62974;49.460;10.892;2023-11-21T10:12:31;97395.22;;;7.58;100.00
73085;BME280;62974;49.460;10.892;2023-11-21T10:15:00;97390.06;;;7.84;100.00
73085;BME280;62974;49.460;10.892;2023-11-21T10:17:35;97391.38;;;7.67;100.00
73085;BME280;62974;49.460;10.892;2023-11-21T10:20:10;97393.69;;;7.98;100.00
73085;BME280;62974;49.460;10.892;2023-11-21T10:22:40;97400.84;;;8.19;100.00
73085;BME280;62974;49.460;10.892;2023-11-21T10:25:09;97405.69;;;8.09;100.00
73085;BME280;62974;49.460;10.892;2023-11-21T10:27:37;97409.41;;;7.80;100.00
73085;BME280;62974;49.460;10.892;2023-11-21T10:30:06;97406.97;;;8.13;100.00
73085;BME280;62974;49.460;10.892;2023-11-21T10:32:36;97417.38;;;8.01;100.00
73085;BME280;62974;49.460;10.892;2023-11-21T10:35:05;97410.78;;;7.76;100.00
73085;BME280;62974;49.460;10.892;2023-11-21T10:37:37;97402.97;;;8.02;100.00
73085;BME280;62974;49.460;10.892;2023-11-21T10:40:07;97398.31;;;8.11;100.00
73085;BME280;62974;49.460;10.892;2023-11-21T10:42:38;97409.34;;;8.01;100.00
73085;BME280;62974;49.460;10.892;2023-11-21T10:45:07;97410.00;;;7.82;100.00
73085;BME280;62974;49.460;10.892;2023-11-21T10:47:42;97414.09;;;7.78;100.00
73085;BME280;62974;49.460;10.892;2023-11-21T10:50:09;97420.56;;;7.69;100.00
73085;BME280;62974;49.460;10.892;2023-11-21T10:52:39;97421.88;;;8.00;100.00
73085;BME280;62974;49.460;10.892;2023-11-21T10:55:16;97423.69;;;7.93;100.00
73085;BME280;62974;49.460;10.892;2023-11-21T10:57:48;97413.81;;;8.22;100.00
73085;BME280;62974;49.460;10.892;2023-11-21T11:00:17;97417.75;;;8.26;100.00
73085;BME280;62974;49.460;10.892;2023-11-21T11:02:50;97420.31;;;8.34;100.00
73085;BME280;62974;49.460;10.892;2023-11-21T11:05:20;97427.34;;;8.35;100.00
73085;BME280;62974;49.460;10.892;2023-11-21T11:07:48;97426.69;;;8.33;100.00
73085;BME280;62974;49.460;10.892;2023-11-21T11:10:18;97431.19;;;8.32;100.00
73085;BME280;62974;49.460;10.892;2023-11-21T11:12:49;97439.75;;;8.21;100.00
73085;BME280;62974;49.460;10.892;2023-11-21T11:15:19;97428.91;;;8.29;100.00
73085;BME280;62974;49.460;10.892;2023-11-21T11:17:49;97425.75;;;8.19;100.00
73085;BME280;62974;49.460;10.892;2023-11-21T11:20:17;97430.31;;;8.25;100.00
73085;BME280;62974;49.460;10.892;2023-11-21T11:22:53;97425.50;;;8.14;100.00
73085;BME280;62974;49.460;10.892;2023-11-21T11:25:30;97429.53;;;8.03;100.00
73085;BME280;62974;49.460;10.892;2023-11-21T11:28:04;97432.97;;;8.25;100.00
73085;BME280;62974;49.460;10.892;2023-11-21T11:30:41;97420.69;;;8.03;100.00
73085;BME280;62974;49.460;10.892;2023-11-21T11:33:23;97418.69;;;8.12;100.00
73085;BME280;62974;49.460;10.892;2023-11-21T11:36:00;97430.81;;;8.08;100.00
73085;BME280;62974;49.460;10.892;2023-11-21T11:38:32;97424.09;;;8.18;100.00
73085;BME280;62974;49.460;10.892;2023-11-21T11:41:03;97430.19;;;8.33;100.00
73085;BME280;62974;49.460;10.892;2023-11-21T11:43:32;97437.88;;;7.94;100.00
73085;BME280;62974;49.460;10.892;2023-11-21T11:46:06;97430.50;;;7.96;100.00
73085;BME280;62974;49.460;10.892;2023-11-21T11:48:37;97435.25;;;8.00;100.00
73085;BME280;62974;49.460;10.892;2023-11-21T11:51:09;97441.56;;;7.93;100.00
73085;BME280;62974;49.460;10.892;2023-11-21T11:53:39;97447.16;;;7.98;100.00
73085;BME280;62974;49.460;10.892;2023-11-21T11:56:23;97447.03;;;8.06;100.00
73085;BME280;62974;49.460;10.892;2023-11-21T11:58:53;97452.06;;;8.16;100.00
73085;BME280;62974;49.460;10.892;2023-11-21T12:01:22;97453.75;;;7.95;100.00
73085;BME280;62974;49.460;10.892;2023-11-21T12:04:27;97453.47;;;7.90;100.00
73085;BME280;62974;49.460;10.892;2023-11-21T12:07:05;97443.94;;;7.81;100.00
73085;BME280;62974;49.460;10.892;2023-11-21T12:09:33;97449.78;;;7.91;100.00
73085;BME280;62974;49.460;10.892;2023-11-21T12:12:02;97446.69;;;7.88;100.00
73085;BME280;62974;49.460;10.892;2023-11-21T12:14:30;97452.91;;;7.95;100.00
73085;BME280;62974;49.460;10.892;2023-11-21T12:16:58;97462.25;;;8.06;100.00
73085;BME280;62974;49.460;10.892;2023-11-21T12:19:28;97449.13;;;8.11;100.00
73085;BME280;62974;49.460;10.892;2023-11-21T12:21:56;97454.78;;;8.22;100.00
73085;BME280;62974;49.460;10.892;2023-11-21T12:24:23;97466.19;;;8.31;100.00
73085;BME280;62974;49.460;10.892;2023-11-21T12:26:52;97456.13;;;8.12;100.00
73085;BME280;62974;49.460;10.892;2023-11-21T12:29:19;97456.31;;;8.31;100.00
73085;BME280;62974;49.460;10.892;2023-11-21T12:31:49;97464.19;;;8.39;100.00
73085;BME280;62974;49.460;10.892;2023-11-21T12:34:16;97465.47;;;8.22;100.00
73085;BME280;62974;49.460;10.892;2023-11-21T12:36:45;97464.53;;;8.30;100.00
73085;BME280;62974;49.460;10.892;2023-11-21T12:39:13;97461.72;;;8.38;100.00
73085;BME280;62974;49.460;10.892;2023-11-21T12:41:41;97461.75;;;8.44;100.00
73085;BME280;62974;49.460;10.892;2023-11-21T12:44:12;97466.47;;;8.42;100.00
73085;BME280;62974;49.460;10.892;2023-11-21T12:46:42;97482.66;;;8.13;100.00
73085;BME280;62974;49.460;10.892;2023-11-21T12:49:11;97478.34;;;8.33;100.00
73085;BME280;62974;49.460;10.892;2023-11-21T12:51:45;97474.91;;;8.39;100.00
73085;BME280;62974;49.460;10.892;2023-11-21T12:54:13;97491.09;;;8.31;100.00
73085;BME280;62974;49.460;10.892;2023-11-21T12:56:41;97490.34;;;8.44;100.00
73085;BME280;62974;49.460;10.892;2023-11-21T12:59:13;97489.28;;;8.38;100.00